LEVC

Valencia Airport

Valencia, Spain
TAF LEVC 221700Z 2218/2318 29010KT 9999 FEW030 TX18/2313Z TN06/2306Z TEMPO 2223/2303 30014G24KT BECMG 2308/2310 29020KT TEMPO 2308/2316 29022G35KT BECMG 2315/2317 30010KT
Issued Valid From Valid To
Jan-22 @ 17:00 UTC
(46 minutes ago)
Jan-22 @ 18:00 UTC
(in 14 minutes)
Jan-23 @ 18:00 UTC
(in 24 hours)
Jan-22 @ 18:00 to Jan-23 @ 08:00
TAF LEVC 221700Z 2218/2318 29010KT 9999 FEW030 TX18/2313Z TN06/2306Z
Wind Visibility Clouds
290° at 10 knots 10,000+ meters
  • Few at 3,000' AGL
Temporary Jan-22 @ 23:00 to Jan-23 @ 03:00
TEMPO 2223/2303 30014G24KT
Wind
300° at 14 knots
 Gusting to 24 knots
Becoming Jan-23 @ 08:00 to Jan-23 @ 15:00
BECMG 2308/2310 29020KT
Wind Visibility Clouds
290° at 20 knots 10,000+ meters
  • Few at 3,000' AGL
Temporary Jan-23 @ 08:00 to Jan-23 @ 16:00
TEMPO 2308/2316 29022G35KT
Wind
290° at 22 knots
 Gusting to 35 knots
Becoming Jan-23 @ 15:00 to Jan-23 @ 18:00
BECMG 2315/2317 30010KT
Wind Visibility Clouds
300° at 10 knots 10,000+ meters
  • Few at 3,000' AGL
TAF LEVC 221700Z 2218/2318 29010KT 9999 FEW030 TX18/2313Z TN06/2306Z TEMPO 2223/2303 30014G24KT BECMG 2308/2310 29020KT TEMPO 2308/2316 29022G35KT BECMG 2315/2317 30010KT
Issued Jan-22 @ 17:00 UTC
(46 minutes ago)
Valid From Jan-22 @ 18:00 UTC
(in 14 minutes)
Valid To Jan-23 @ 18:00 UTC
(in 24 hours)
Jan-22 @ 18:00 - Jan-23 @ 08:00
Wind Visibility
290° at 10 knots 10,000+ meters
Clouds
  • Few at 3,000' AGL
Temporary Jan-22 @ 23:00 - Jan-23 @ 03:00
Wind
300° at 14 knots
 Gusting to 24 knots
Becoming Jan-23 @ 08:00 - Jan-23 @ 15:00
Wind Visibility
290° at 20 knots 10,000+ meters
Clouds
  • Few at 3,000' AGL
Temporary Jan-23 @ 08:00 - Jan-23 @ 16:00
Wind
290° at 22 knots
 Gusting to 35 knots
Becoming Jan-23 @ 15:00 - Jan-23 @ 18:00
Wind Visibility
300° at 10 knots 10,000+ meters
Clouds
  • Few at 3,000' AGL